Home > Products > Valid Products > TAF

000
FTUS41 KBTV 040709 AAB
TAFMSS
TAF AMD
KMSS 040709Z 0407/0506 23010KT P6SM -RA BKN020 OVC030
      TEMPO 0407/0410 24012G20KT 4SM -FZDZSN BR BKN015
     FM041200 24010G18KT P6SM BKN025 OVC040
     FM041400 24014G25KT P6SM SCT030 BKN060
     FM042300 25010G16KT P6SM FEW140 SCT200=



000
FTUS41 KBTV 040603 AAB
TAFBTV
TAF AMD
KBTV 040603Z 0406/0506 18020G30KT P6SM VCSH SCT015 OVC035
      TEMPO 0406/0409 4SM -SN BLSN
     FM040900 20013G23KT 5SM BLSN VCSH SCT025 OVC045
     FM041200 26012G20KT P6SM SCT040 BKN100
     FM050300 29009KT P6SM BKN200=



000
FTUS41 KBTV 040601 AAA
TAFMSS
TAF AMD
KMSS 040601Z 0406/0506 23010KT 5SM -FZRASN BR SCT007 BKN015 OVC020
      TEMPO 0406/0410 24010G20KT 2SM -FZRA BR BKN007 OVC012
     FM041200 24010G22KT 5SM BR BKN010 BKN015
     FM041400 24014G25KT P6SM SCT015 BKN040
     FM042300 25010G16KT P6SM FEW140 SCT200=



000
FTUS41 KBTV 040601 AAA
TAFMSS
TAF AMD
KMSS 040601Z 0406/0506 23010KT 5SM -FZRASN BR SCT007 BKN015 OVC020
      TEMPO 0406/0410 24010G20KT 2SM -FZRA BR BKN007 OVC012
     FM041200 24010G22KT 5SM BR BKN010 BKN015
     FM041400 24014G25KT P6SM SCT015 BKN040
     FM042300 25010G16KT P6SM FEW140 SCT200=



000
FTUS41 KBTV 040533
TAFMPV
TAF
KMPV 040533Z 0406/0506 19007KT 3SM BR VCSH BKN012 OVC018
     FM041000 22009KT 4SM BR VCSH SCT015 OVC020
     FM041200 24010KT P6SM SCT025 BKN040 OVC080
      TEMPO 0412/0414 BKN025
     FM041600 27011G20KT P6SM FEW035 SCT100
     FM050000 29008KT P6SM FEW100 BKN180=



000
FTUS41 KBTV 040533
TAFBTV
TAF
KBTV 040533Z 0406/0506 18020G33KT 3SM -SN BLSN SCT015 OVC040
     FM040900 20013G23KT 5SM BLSN VCSH SCT025 OVC045
     FM041200 26012G20KT P6SM SCT040 BKN100
     FM050300 29009KT P6SM BKN200=



000
FTUS41 KBTV 040533
TAFMSS
TAF
KMSS 040533Z 0406/0506 22008KT 3SM -FZRASN BR SCT005 BKN010 OVC015
      TEMPO 0406/0410 2SM -FZRA BR BKN005 OVC007
     FM041200 24010G22KT 5SM BR BKN010 BKN015
     FM041400 24014G25KT P6SM SCT015 BKN040
     FM042300 25010G16KT P6SM FEW140 SCT200=



000
FTUS41 KBTV 040533
TAFSLK
TAF
KSLK 040533Z 0406/0506 22014G20KT 3SM -SN BLSN BR SCT008 OVC015
      TEMPO 0406/0410 2SM -SN BLSN BKN007
     FM041000 24010KT 3SM BR VCSH SCT010 OVC020
     FM041400 25013G22KT P6SM SCT015 BKN030
     FM041700 25014G25KT P6SM FEW025 SCT050
     FM050300 25009KT P6SM SCT250=



000
FTUS41 KBTV 040533
TAFMSS
TAF
KMSS 040533Z 0406/0506 22008KT 3SM -FZRASN BR SCT005 BKN010 OVC015
      TEMPO 0406/0410 2SM -FZRA BR BKN005 OVC007
     FM041200 24010G22KT 5SM BR BKN010 BKN015
     FM041400 24014G25KT P6SM SCT015 BKN040
     FM042300 25010G16KT P6SM FEW140 SCT200=



000
FTUS41 KBTV 040533
TAFSLK
TAF
KSLK 040533Z 0406/0506 22014G20KT 3SM -SN BLSN BR SCT008 OVC015
      TEMPO 0406/0410 2SM -SN BLSN BKN007
     FM041000 24010KT 3SM BR VCSH SCT010 OVC020
     FM041400 25013G22KT P6SM SCT015 BKN030
     FM041700 25014G25KT P6SM FEW025 SCT050
     FM050300 25009KT P6SM SCT250=



000
FTUS41 KBTV 040533
TAFMPV
TAF
KMPV 040533Z 0406/0506 19007KT 3SM BR VCSH BKN012 OVC018
     FM041000 22009KT 4SM BR VCSH SCT015 OVC020
     FM041200 24010KT P6SM SCT025 BKN040 OVC080
      TEMPO 0412/0414 BKN025
     FM041600 27011G20KT P6SM FEW035 SCT100
     FM050000 29008KT P6SM FEW100 BKN180=



000
FTUS41 KBTV 040533
TAFBTV
TAF
KBTV 040533Z 0406/0506 18020G33KT 3SM -SN BLSN SCT015 OVC040
     FM040900 20013G23KT 5SM BLSN VCSH SCT025 OVC045
     FM041200 26012G20KT P6SM SCT040 BKN100
     FM050300 29009KT P6SM BKN200=



000
FTUS41 KBTV 040357 AAB
TAFBTV
TAF AMD
KBTV 040357Z 0404/0424 18014G28KT 6SM -SHSN BR SCT020 OVC035
      TEMPO 0404/0406 2SM -SN BR OVC020
     FM040600 20015KT P6SM VCSH OVC035
     FM041300 27012G19KT P6SM SCT040 SCT250=



000
FTUS41 KBTV 040139 AAA
TAFSLK
TAF AMD
KSLK 040139Z 0402/0424 20012G20KT 3SM -SN BR SCT020 OVC035
      TEMPO 0402/0403 2SM -SN BR OVC020
     FM040300 23010G20KT 2SM -SN BR OVC012
     FM041000 23012G24KT P6SM BKN025=



000
FTUS41 KBTV 040138 AAA
TAFMSS
TAF AMD
KMSS 040138Z 0402/0424 12010KT 2SM -SN BR OVC015
      TEMPO 0402/0404 1/2SM SN FG VV008
     FM040600 25013G23KT P6SM VCSH OVC015
     FM041300 24015G27KT P6SM BKN035=



000
FTUS41 KBTV 040138 AAA
TAFMSS
TAF AMD
KMSS 040138Z 0402/0424 12010KT 2SM -SN BR OVC015
      TEMPO 0402/0404 1/2SM SN FG VV008
     FM040600 25013G23KT P6SM VCSH OVC015
     FM041300 24015G27KT P6SM BKN035=



000
FTUS41 KBTV 032320
TAFSLK
TAF
KSLK 032320Z 0400/0424 20012G20KT 2SM -SN BR OVC020
     FM040300 23010G20KT 2SM -SN BR OVC012
     FM041000 23012G24KT P6SM BKN025=



000
FTUS41 KBTV 032320
TAFMSS
TAF
KMSS 032320Z 0400/0424 12010KT 2SM -SN BR OVC015
     FM040600 25013G23KT P6SM VCSH OVC015
     FM041300 24015G27KT P6SM BKN035=



000
FTUS41 KBTV 032320
TAFMPV
TAF
KMPV 032320Z 0400/0424 18010G20KT 3SM -SN BR SCT025 OVC050
      TEMPO 0400/0401 2SM -SN BR BKN025
     FM040100 18011KT 1SM -SN BR OVC015
     FM040600 20008KT P6SM VCSH OVC020
     FM041200 29009G18KT P6SM SCT040 SCT250=



000
FTUS41 KBTV 032320
TAFBTV
TAF
KBTV 032320Z 0400/0424 18014G28KT 3SM -SN BR OVC020
      TEMPO 0400/0404 2SM -SN BR
     FM040600 20015KT P6SM VCSH OVC035
     FM041300 27012G19KT P6SM SCT040 SCT250=



000
FTUS41 KBTV 032203 RRA
TAFMSS
TAF
KMSS 032203Z 0322/0418 21006KT P6SM -SHSN OVC050
      TEMPO 0322/0323 3SM -SN BR
     FM032300 11008KT 2SM -SN BR SCT008 OVC015
     FM040600 21009KT 3SM -SN BR SCT003 OVC010
     FM040800 23011KT P6SM VCSH SCT003 OVC008
     FM041000 24012G20KT P6SM SCT025 OVC050=



000
FTUS41 KBTV 032153 AAA
TAFSLK
TAF AMD
KSLK 032153Z 0322/0418 21007KT P6SM SHSN OVC035
      TEMPO 0322/0323 2SM -SN BR SCT015 OVC025
     FM032300 20012G21KT 1 1/2SM -SN BR SCT015 OVC025
     FM041000 24010G28KT 6SM -FZDZ BR SCT003 OVC010
     FM041300 25011G24KT P6SM SCT020 OVC040=



000
FTUS41 KBTV 031729
TAFMSS
TAF
KMSS 031729Z 0318/0418 21006KT P6SM VCSH SCT090 BKN150
     FM032200 11008KT 2SM -SN BR SCT008 OVC015
     FM040600 21009KT 3SM -SN BR SCT003 OVC010
     FM040800 23011KT P6SM VCSH SCT003 OVC008
     FM041000 24012G20KT P6SM SCT025 OVC050=



000
FTUS41 KBTV 031729
TAFSLK
TAF
KSLK 031729Z 0318/0418 21007KT P6SM VCSH SCT090 BKN150
     FM032100 20012G21KT 1 1/2SM -SN BR SCT015 OVC025
     FM041000 24010G28KT 6SM -FZDZ BR SCT003 OVC010
     FM041300 25011G24KT P6SM SCT020 OVC040=



000
FTUS41 KBTV 031729
TAFMSS
TAF
KMSS 031729Z 0318/0418 21006KT P6SM VCSH SCT090 BKN150
     FM032200 11008KT 2SM -SN BR SCT008 OVC015
     FM040600 21009KT 3SM -SN BR SCT003 OVC010
     FM040800 23011KT P6SM VCSH SCT003 OVC008
     FM041000 24012G20KT P6SM SCT025 OVC050=



000
FTUS41 KBTV 031729
TAFSLK
TAF
KSLK 031729Z 0318/0418 21007KT P6SM VCSH SCT090 BKN150
     FM032100 20012G21KT 1 1/2SM -SN BR SCT015 OVC025
     FM041000 24010G28KT 6SM -FZDZ BR SCT003 OVC010
     FM041300 25011G24KT P6SM SCT020 OVC040=



000
FTUS41 KBTV 031729
TAFBTV
TAF
KBTV 031729Z 0318/0418 21008KT P6SM SCT120 BKN250
     FM032100 18009KT P6SM VCSH BKN045 OVC090
     FM032300 17011G20KT 3SM -SN BR SCT015 OVC030
     FM040600 19012KT P6SM VCSH SCT008 OVC015
     FM041200 23013G22KT P6SM SCT020 OVC045=



000
FTUS41 KBTV 031729
TAFMPV
TAF
KMPV 031729Z 0318/0418 VRB05KT P6SM FEW120 SCT250
     FM032100 17007KT P6SM VCSH SCT045 OVC090
     FM040000 18008KT 2SM -SN BR SCT015 OVC030
     FM041100 25009KT P6SM VCSH SCT010 OVC020
     FM041200 28012G19KT P6SM FEW080 SCT150=



000
FTUS41 KBTV 031729
TAFMPV
TAF
KMPV 031729Z 0318/0418 VRB05KT P6SM FEW120 SCT250
     FM032100 17007KT P6SM VCSH SCT045 OVC090
     FM040000 18008KT 2SM -SN BR SCT015 OVC030
     FM041100 25009KT P6SM VCSH SCT010 OVC020
     FM041200 28012G19KT P6SM FEW080 SCT150=



000
FTUS41 KBTV 031729
TAFBTV
TAF
KBTV 031729Z 0318/0418 21008KT P6SM SCT120 BKN250
     FM032100 18009KT P6SM VCSH BKN045 OVC090
     FM032300 17011G20KT 3SM -SN BR SCT015 OVC030
     FM040600 19012KT P6SM VCSH SCT008 OVC015
     FM041200 23013G22KT P6SM SCT020 OVC045=



000
FTUS41 KBTV 031126
TAFBTV
TAF
KBTV 031126Z 0312/0412 00000KT P6SM SKC
     FM031400 17008KT P6SM FEW060 SCT110
     FM032100 18010G20KT 4SM -SHSN BR SCT025 OVC040
     FM040000 17011G22KT 2SM -SN BR BKN015 OVC025
     FM040500 19014G28KT 4SM -SHSN BR SCT010 OVC015=



000
FTUS41 KBTV 031126
TAFMPV
TAF
KMPV 031126Z 0312/0412 00000KT P6SM SKC
     FM031800 17006KT P6SM FEW120 SCT200
     FM032100 17009G18KT 3SM -SHSN BR SCT025 BKN040 OVC060
     FM040000 18008G18KT 2SM -SN BR SCT008 OVC020
     FM040800 23010G20KT 4SM -SHSN BR SCT015 OVC020
     FM041100 25009KT P6SM SCT015 OVC020=



000
FTUS41 KBTV 031126
TAFSLK
TAF
KSLK 031126Z 0312/0412 00000KT P6SM SKC
     FM031500 21006KT P6SM FEW035 BKN110
     FM032000 20007KT 2SM BR BKN008 OVC020
     FM040200 20012G21KT 1SM -SN BR SCT003 OVC008
     FM040700 23013G23KT 5SM -SN BR SCT010 OVC015
     FM041000 24010G28KT 6SM -FZDZ BR SCT015 OVC020=



000
FTUS41 KBTV 031126
TAFMSS
TAF
KMSS 031126Z 0312/0412 00000KT P6SM SKC
     FM031500 19006KT P6SM FEW060 BKN120
     FM032000 16007KT 2SM -SN BR SCT015 OVC025
     FM040500 22010G20KT 5SM -SN BR SCT008 OVC020
     FM041000 24013G26KT P6SM VCSH SCT015 OVC030=



000
FTUS41 KBTV 031126
TAFBTV
TAF
KBTV 031126Z 0312/0412 00000KT P6SM SKC
     FM031400 17008KT P6SM FEW060 SCT110
     FM032100 18010G20KT 4SM -SHSN BR SCT025 OVC040
     FM040000 17011G22KT 2SM -SN BR BKN015 OVC025
     FM040500 19014G28KT 4SM -SHSN BR SCT010 OVC015=



000
FTUS41 KBTV 031126
TAFMPV
TAF
KMPV 031126Z 0312/0412 00000KT P6SM SKC
     FM031800 17006KT P6SM FEW120 SCT200
     FM032100 17009G18KT 3SM -SHSN BR SCT025 BKN040 OVC060
     FM040000 18008G18KT 2SM -SN BR SCT008 OVC020
     FM040800 23010G20KT 4SM -SHSN BR SCT015 OVC020
     FM041100 25009KT P6SM SCT015 OVC020=



000
FTUS41 KBTV 031126
TAFSLK
TAF
KSLK 031126Z 0312/0412 00000KT P6SM SKC
     FM031500 21006KT P6SM FEW035 BKN110
     FM032000 20007KT 2SM BR BKN008 OVC020
     FM040200 20012G21KT 1SM -SN BR SCT003 OVC008
     FM040700 23013G23KT 5SM -SN BR SCT010 OVC015
     FM041000 24010G28KT 6SM -FZDZ BR SCT015 OVC020=



000
FTUS41 KBTV 031126
TAFMSS
TAF
KMSS 031126Z 0312/0412 00000KT P6SM SKC
     FM031500 19006KT P6SM FEW060 BKN120
     FM032000 16007KT 2SM -SN BR SCT015 OVC025
     FM040500 22010G20KT 5SM -SN BR SCT008 OVC020
     FM041000 24013G26KT P6SM VCSH SCT015 OVC030=



000
FTUS41 KBTV 030534
TAFBTV
TAF
KBTV 030534Z 0306/0406 VRB04KT P6SM FEW250
     FM031200 17008KT P6SM SCT045 BKN080
     FM032200 17011G20KT 4SM -SHSN BR SCT015 OVC030
     FM040100 17012G22KT 2SM -SN BR SCT010 BKN018 OVC025
     FM040400 17019G28KT 3SM -SHSN BR SCT020 OVC030=



000
FTUS41 KBTV 030534
TAFMPV
TAF
KMPV 030534Z 0306/0406 31009KT P6SM FEW250
     FM031100 VRB03KT P6SM FEW080 SCT180
     FM031900 17008G18KT P6SM SCT040 BKN150
     FM032300 17011G20KT 3SM -SHSN BR SCT010 OVC030
     FM040100 17014G26KT 2SM -SN BR SCT008 OVC015=



000
FTUS41 KBTV 030534
TAFMSS
TAF
KMSS 030534Z 0306/0406 VRB03KT P6SM SKC
     FM031500 15007KT P6SM SCT040 BKN080
     FM032000 13008KT 3SM -SHSN BR SCT015 OVC025
     FM032200 13010KT 1SM -SN BR SCT008 BKN015 OVC020
     FM040500 20011G21KT 3SM -SHSN BR SCT015 BKN025=



000
FTUS41 KBTV 030534
TAFSLK
TAF
KSLK 030534Z 0306/0406 26004KT P6SM FEW250
     FM031500 20005KT P6SM SCT025 BKN100
     FM032000 18008KT 3SM -SHSN BR SCT020 OVC030
     FM032200 18009G18KT 1SM -SN BR SCT006 BKN010 OVC020
     FM040400 19013G26KT 2SM -SN BR SCT008 OVC010=



000
FTUS41 KBTV 030534
TAFBTV
TAF
KBTV 030534Z 0306/0406 VRB04KT P6SM FEW250
     FM031200 17008KT P6SM SCT045 BKN080
     FM032200 17011G20KT 4SM -SHSN BR SCT015 OVC030
     FM040100 17012G22KT 2SM -SN BR SCT010 BKN018 OVC025
     FM040400 17019G28KT 3SM -SHSN BR SCT020 OVC030=



000
FTUS41 KBTV 030534
TAFMPV
TAF
KMPV 030534Z 0306/0406 31009KT P6SM FEW250
     FM031100 VRB03KT P6SM FEW080 SCT180
     FM031900 17008G18KT P6SM SCT040 BKN150
     FM032300 17011G20KT 3SM -SHSN BR SCT010 OVC030
     FM040100 17014G26KT 2SM -SN BR SCT008 OVC015=



000
FTUS41 KBTV 030534
TAFMSS
TAF
KMSS 030534Z 0306/0406 VRB03KT P6SM SKC
     FM031500 15007KT P6SM SCT040 BKN080
     FM032000 13008KT 3SM -SHSN BR SCT015 OVC025
     FM032200 13010KT 1SM -SN BR SCT008 BKN015 OVC020
     FM040500 20011G21KT 3SM -SHSN BR SCT015 BKN025=



000
FTUS41 KBTV 030534
TAFSLK
TAF
KSLK 030534Z 0306/0406 26004KT P6SM FEW250
     FM031500 20005KT P6SM SCT025 BKN100
     FM032000 18008KT 3SM -SHSN BR SCT020 OVC030
     FM032200 18009G18KT 1SM -SN BR SCT006 BKN010 OVC020
     FM040400 19013G26KT 2SM -SN BR SCT008 OVC010=



000
FTUS41 KBTV 022320
TAFBTV
TAF
KBTV 022320Z 0300/0324 31010G20KT P6SM -SHSN BKN040
     FM030200 33008KT P6SM SKC
     FM031200 18005KT P6SM SKC
     FM031700 17010G20KT P6SM OVC150=



000
FTUS41 KBTV 022320
TAFMSS
TAF
KMSS 022320Z 0300/0324 31010G20KT P6SM BKN040
     FM030200 VRB03KT P6SM SKC
     FM031500 15008KT P6SM OVC150
     FM032200 11010KT 2SM -SN BR SCT020 OVC035=



000
FTUS41 KBTV 022320
TAFSLK
TAF
KSLK 022320Z 0300/0324 28007G14KT P6SM BKN030
     FM030200 VRB03KT P6SM SKC
     FM031500 20005KT P6SM OVC150
     FM032200 19010G20KT 2SM -SN BR SCT020 OVC035=



000
FTUS41 KBTV 022320
TAFMPV
TAF
KMPV 022320Z 0300/0324 31013G25KT 3SM -SHSN BR OVC035
      TEMPO 0300/0301 2SM -SN BR BKN028
     FM030200 30010KT P6SM SKC
     FM031300 VRB03KT P6SM SKC
     FM031700 18007G15KT P6SM OVC150=



000
FTUS41 KBTV 022320
TAFMSS
TAF
KMSS 022320Z 0300/0324 31010G20KT P6SM BKN040
     FM030200 VRB03KT P6SM SKC
     FM031500 15008KT P6SM OVC150
     FM032200 11010KT 2SM -SN BR SCT020 OVC035=



000
FTUS41 KBTV 022320
TAFMPV
TAF
KMPV 022320Z 0300/0324 31013G25KT 3SM -SHSN BR OVC035
      TEMPO 0300/0301 2SM -SN BR BKN028
     FM030200 30010KT P6SM SKC
     FM031300 VRB03KT P6SM SKC
     FM031700 18007G15KT P6SM OVC150=



000
FTUS41 KBTV 022320
TAFSLK
TAF
KSLK 022320Z 0300/0324 28007G14KT P6SM BKN030
     FM030200 VRB03KT P6SM SKC
     FM031500 20005KT P6SM OVC150
     FM032200 19010G20KT 2SM -SN BR SCT020 OVC035=



000
FTUS41 KBTV 022320
TAFBTV
TAF
KBTV 022320Z 0300/0324 31010G20KT P6SM -SHSN BKN040
     FM030200 33008KT P6SM SKC
     FM031200 18005KT P6SM SKC
     FM031700 17010G20KT P6SM OVC150=



000
FTUS41 KBTV 022242 AAB
TAFSLK
TAF AMD
KSLK 022242Z 0223/0318 26014G28KT 4SM -SHSN BR BKN025
      TEMPO 0223/0224 2SM -SN BR
     FM030000 29012G28KT 6SM BR BKN040 WS020/31040KT
     FM030200 29009KT P6SM BKN045
     FM030400 20006KT P6SM SCT250=



000
FTUS41 KBTV 022242 AAB
TAFSLK
TAF AMD
KSLK 022242Z 0223/0318 26014G28KT 4SM -SHSN BR BKN025
      TEMPO 0223/0224 2SM -SN BR
     FM030000 29012G28KT 6SM BR BKN040 WS020/31040KT
     FM030200 29009KT P6SM BKN045
     FM030400 20006KT P6SM SCT250=



000
FTUS41 KBTV 022101 AAA
TAFMPV
TAF AMD
KMPV 022101Z 0221/0318 31013G21KT 6SM BR VCSH BKN040
      TEMPO 0221/0301 30014G28KT 2SM -SHSN BR BKN030
     FM030200 31015G26KT P6SM SCT040
     FM030500 32009KT P6SM FEW250=



000
FTUS41 KBTV 022101 AAA
TAFMPV
TAF AMD
KMPV 022101Z 0221/0318 31013G21KT 6SM BR VCSH BKN040
      TEMPO 0221/0301 30014G28KT 2SM -SHSN BR BKN030
     FM030200 31015G26KT P6SM SCT040
     FM030500 32009KT P6SM FEW250=



000
FTUS41 KBTV 021829 AAA
TAFSLK
TAF AMD
KSLK 021829Z 0218/0318 26014G28KT 1 1/2SM -SHSN BR BKN025
      TEMPO 0218/0221 26011G20KT 5SM -SHSN BR SCT020 OVC030
     FM030000 29012G28KT 6SM BR BKN040 WS020/31040KT
     FM030200 29009KT P6SM BKN045
     FM030400 20006KT P6SM SCT250=



000
FTUS41 KBTV 021829 AAA
TAFSLK
TAF AMD
KSLK 021829Z 0218/0318 26014G28KT 1 1/2SM -SHSN BR BKN025
      TEMPO 0218/0221 26011G20KT 5SM -SHSN BR SCT020 OVC030
     FM030000 29012G28KT 6SM BR BKN040 WS020/31040KT
     FM030200 29009KT P6SM BKN045
     FM030400 20006KT P6SM SCT250=



000
FTUS41 KBTV 021736
TAFMSS
TAF
KMSS 021736Z 0218/0318 26016G27KT P6SM VCSH BKN020
      TEMPO 0218/0221 28013G23KT 2SM -SN BR BKN017 OVC030
     FM022100 29015G28KT P6SM SCT045
     FM030100 29008KT P6SM FEW250=



000
FTUS41 KBTV 021736
TAFMPV
TAF
KMPV 021736Z 0218/0318 31013G21KT 6SM BR VCSH BKN040
      TEMPO 0218/0221 30014G28KT 2SM -SHSN BR BKN030
     FM030200 31015G26KT P6SM SCT040
     FM030500 32009KT P6SM FEW250=



000
FTUS41 KBTV 021736
TAFBTV
TAF
KBTV 021736Z 0218/0318 30012G24KT P6SM VCSH BKN040
     FM022300 33013G23KT P6SM SCT150
     FM030400 34009KT P6SM FEW250=



000
FTUS41 KBTV 021736
TAFSLK
TAF
KSLK 021736Z 0218/0318 26014G28KT 2SM -SHSN BR BKN025
      TEMPO 0218/0221 26011G20KT 5SM -SHSN BR SCT020 OVC030
     FM030000 29012G28KT 6SM BR BKN040 WS020/31040KT
     FM030200 29009KT P6SM BKN045
     FM030400 20006KT P6SM SCT250=



000
FTUS41 KBTV 021736
TAFMSS
TAF
KMSS 021736Z 0218/0318 26016G27KT P6SM VCSH BKN020
      TEMPO 0218/0221 28013G23KT 2SM -SN BR BKN017 OVC030
     FM022100 29015G28KT P6SM SCT045
     FM030100 29008KT P6SM FEW250=



000
FTUS41 KBTV 021736
TAFSLK
TAF
KSLK 021736Z 0218/0318 26014G28KT 2SM -SHSN BR BKN025
      TEMPO 0218/0221 26011G20KT 5SM -SHSN BR SCT020 OVC030
     FM030000 29012G28KT 6SM BR BKN040 WS020/31040KT
     FM030200 29009KT P6SM BKN045
     FM030400 20006KT P6SM SCT250=



000
FTUS41 KBTV 021736
TAFMPV
TAF
KMPV 021736Z 0218/0318 31013G21KT 6SM BR VCSH BKN040
      TEMPO 0218/0221 30014G28KT 2SM -SHSN BR BKN030
     FM030200 31015G26KT P6SM SCT040
     FM030500 32009KT P6SM FEW250=



000
FTUS41 KBTV 021736
TAFBTV
TAF
KBTV 021736Z 0218/0318 30012G24KT P6SM VCSH BKN040
     FM022300 33013G23KT P6SM SCT150
     FM030400 34009KT P6SM FEW250=



000
FTUS41 KBTV 021508 AAA
TAFSLK
TAF AMD
KSLK 021508Z 0215/0312 25014G26KT 5SM -SHSN BR SCT012 OVC020
      TEMPO 0215/0218 25007KT 2SM -SHSN BR BKN021 OVC025
     FM021800 28015G25KT P6SM VCSH OVC025
     FM030000 27010KT P6SM OVC035=



000
FTUS41 KBTV 021505 AAA
TAFMPV
TAF AMD
KMPV 021505Z 0215/0312 31014G24KT 5SM -SHSN OVC035
      TEMPO 0215/0218 31014G20KT 1 1/2SM -SHSN BR BKN021 OVC030
     FM022300 30015G25KT P6SM VCSH OVC050
     FM030600 32010G18KT P6SM BKN250=



000
FTUS41 KBTV 021241 AAB
TAFBTV
TAF AMD
KBTV 021241Z 0213/0312 20005KT 3SM -SHSN BR SCT025 OVC035
      TEMPO 0213/0216 1SM -SHSN BR OVC025
     FM021600 30016G28KT P6SM VCSH OVC040
     FM030100 34009KT P6SM SCT040 BKN250=



000
FTUS41 KBTV 021241 AAB
TAFBTV
TAF AMD
KBTV 021241Z 0213/0312 20005KT 3SM -SHSN BR SCT025 OVC035
      TEMPO 0213/0216 1SM -SHSN BR OVC025
     FM021600 30016G28KT P6SM VCSH OVC040
     FM030100 34009KT P6SM SCT040 BKN250=



000
FTUS41 KBTV 021140
TAFBTV
TAF
KBTV 021140Z 0212/0312 20005KT 3SM -SHSN BR OVC025
     FM021600 30016G28KT P6SM VCSH OVC040
     FM030100 34009KT P6SM SCT040 BKN250=



000
FTUS41 KBTV 021140
TAFMPV
TAF
KMPV 021140Z 0212/0312 VRB03KT 2SM -SHSN BR OVC025
     FM021500 31014G24KT 5SM -SHSN OVC035
     FM022300 30015G25KT P6SM VCSH OVC050
     FM030600 32010G18KT P6SM BKN250=



000
FTUS41 KBTV 021140
TAFSLK
TAF
KSLK 021140Z 0212/0312 22006KT 2SM -SHSN BR OVC012
     FM021500 25014G26KT 5SM -SHSN BR SCT012 OVC020
     FM021800 28015G25KT P6SM VCSH OVC025
     FM030000 27010KT P6SM OVC035=



000
FTUS41 KBTV 021140
TAFMSS
TAF
KMSS 021140Z 0212/0312 26008KT 5SM -SHSN BR OVC035
     FM021400 26015G29KT P6SM VCSH BKN050
     FM022300 28012G20KT P6SM SCT035=



000
FTUS41 KBTV 021140
TAFBTV
TAF
KBTV 021140Z 0212/0312 20005KT 3SM -SHSN BR OVC025
     FM021600 30016G28KT P6SM VCSH OVC040
     FM030100 34009KT P6SM SCT040 BKN250=



000
FTUS41 KBTV 021140
TAFMPV
TAF
KMPV 021140Z 0212/0312 VRB03KT 2SM -SHSN BR OVC025
     FM021500 31014G24KT 5SM -SHSN OVC035
     FM022300 30015G25KT P6SM VCSH OVC050
     FM030600 32010G18KT P6SM BKN250=



000
FTUS41 KBTV 021140
TAFSLK
TAF
KSLK 021140Z 0212/0312 22006KT 2SM -SHSN BR OVC012
     FM021500 25014G26KT 5SM -SHSN BR SCT012 OVC020
     FM021800 28015G25KT P6SM VCSH OVC025
     FM030000 27010KT P6SM OVC035=



000
FTUS41 KBTV 021140
TAFMSS
TAF
KMSS 021140Z 0212/0312 26008KT 5SM -SHSN BR OVC035
     FM021400 26015G29KT P6SM VCSH BKN050
     FM022300 28012G20KT P6SM SCT035=



000
FTUS41 KBTV 021003 AAA
TAFMSS
TAF AMD
KMSS 021003Z 0210/0306 26008KT 4SM -SHSN BR OVC035
      TEMPO 0210/0213 2SM -SHSN BR OVC025
     FM021300 26015G29KT P6SM BKN050
     FM022300 28012G20KT P6SM SCT035=



000
FTUS41 KBTV 020743 AAA
TAFSLK
TAF AMD
KSLK 020743Z 0208/0306 22006KT 4SM -SHSN BR OVC012
      TEMPO 0208/0212 1SM -SHSN BR OVC009
     FM021300 25013G26KT P6SM VCSH SCT012 OVC020
     FM021800 28015G25KT P6SM VCSH OVC025
     FM030000 27010KT P6SM OVC035=



000
FTUS41 KBTV 020743 AAA
TAFBTV
TAF AMD
KBTV 020743Z 0208/0306 20010KT 5SM -SHSN BR OVC035
      TEMPO 0208/0212 2SM -SHSN OVC025
     FM021300 30015G26KT P6SM VCSH OVC040
     FM021800 30018G28KT P6SM BKN060
     FM030300 33009KT P6SM BKN250=



000
FTUS41 KBTV 020540
TAFBTV
TAF
KBTV 020540Z 0206/0306 20010KT 6SM -SHSN BR OVC050
     FM021300 30015G26KT P6SM VCSH OVC040
     FM021800 30018G28KT P6SM BKN060
     FM030300 33009KT P6SM BKN250=



000
FTUS41 KBTV 020540
TAFMPV
TAF
KMPV 020540Z 0206/0306 VRB03KT 5SM -SN BR SCT025 OVC050
     FM021300 31010G18KT 5SM -SHSN OVC025
     FM021600 30012G25KT 3SM -SHSN OVC035
     FM022300 30009KT P6SM VCSH OVC050=



000
FTUS41 KBTV 020540
TAFMSS
TAF
KMSS 020540Z 0206/0306 24004KT 6SM -SHSN BR OVC040
     FM021200 26015G29KT P6SM BKN050
     FM022300 28012G20KT P6SM SCT035=



000
FTUS41 KBTV 020540
TAFSLK
TAF
KSLK 020540Z 0206/0306 22006KT 6SM -SHSN BR OVC012
     FM021300 25013G26KT P6SM VCSH SCT012 OVC020
     FM021800 28015G25KT P6SM VCSH OVC025
     FM030000 27010KT P6SM OVC035=



000
FTUS41 KBTV 020540
TAFMPV
TAF
KMPV 020540Z 0206/0306 VRB03KT 5SM -SN BR SCT025 OVC050
     FM021300 31010G18KT 5SM -SHSN OVC025
     FM021600 30012G25KT 3SM -SHSN OVC035
     FM022300 30009KT P6SM VCSH OVC050=



000
FTUS41 KBTV 020540
TAFMSS
TAF
KMSS 020540Z 0206/0306 24004KT 6SM -SHSN BR OVC040
     FM021200 26015G29KT P6SM BKN050
     FM022300 28012G20KT P6SM SCT035=



000
FTUS41 KBTV 020540
TAFSLK
TAF
KSLK 020540Z 0206/0306 22006KT 6SM -SHSN BR OVC012
     FM021300 25013G26KT P6SM VCSH SCT012 OVC020
     FM021800 28015G25KT P6SM VCSH OVC025
     FM030000 27010KT P6SM OVC035=



000
FTUS41 KBTV 020540
TAFBTV
TAF
KBTV 020540Z 0206/0306 20010KT 6SM -SHSN BR OVC050
     FM021300 30015G26KT P6SM VCSH OVC040
     FM021800 30018G28KT P6SM BKN060
     FM030300 33009KT P6SM BKN250=



000
FTUS41 KBTV 020156 AAB
TAFBTV
TAF AMD
KBTV 020156Z 0202/0224 18010G20KT 6SM -SHSN BR OVC060
      TEMPO 0202/0206 3SM -SN BR OVC030
     FM020600 19005KT 3SM -SHSN BR OVC025
     FM021300 30015G26KT P6SM VCSH OVC040=



000
FTUS41 KBTV 020156 AAB
TAFBTV
TAF AMD
KBTV 020156Z 0202/0224 18010G20KT 6SM -SHSN BR OVC060
      TEMPO 0202/0206 3SM -SN BR OVC030
     FM020600 19005KT 3SM -SHSN BR OVC025
     FM021300 30015G26KT P6SM VCSH OVC040=



000
FTUS41 KBTV 020110 AAA
TAFMSS
TAF AMD
KMSS 020110Z 0201/0224 24004KT 4SM -SHSN BR OVC030
     FM020900 24007KT 4SM -SHSN OVC060
     FM021200 26015G29KT 4SM -SHSN BR BKN025 OVC050=



000
FTUS41 KBTV 020110 AAA
TAFMSS
TAF AMD
KMSS 020110Z 0201/0224 24004KT 4SM -SHSN BR OVC030
     FM020900 24007KT 4SM -SHSN OVC060
     FM021200 26015G29KT 4SM -SHSN BR BKN025 OVC050=



000
FTUS41 KBTV 012322
TAFBTV
TAF
KBTV 012322Z 0200/0224 18010G20KT 6SM -SHSN BR OVC060
     FM020600 19005KT 3SM -SHSN BR OVC025
     FM021300 30015G26KT P6SM VCSH OVC040=



000
FTUS41 KBTV 012322
TAFSLK
TAF
KSLK 012322Z 0200/0224 22006KT 2SM -SN BR OVC015
      TEMPO 0200/0204 3SM -SN BR SCT015 OVC025
     FM021300 25013G26KT 2SM -SN BR OVC025=



000
FTUS41 KBTV 012322
TAFMSS
TAF
KMSS 012322Z 0200/0224 24004KT 4SM -SHSN BR OVC040
     FM020500 25005KT 4SM -SHSN BR OVC030
     FM020900 24007KT 4SM -SHSN OVC060
     FM021200 26015G29KT 4SM -SHSN BR BKN025 OVC050=



000
FTUS41 KBTV 012322
TAFMPV
TAF
KMPV 012322Z 0200/0224 18005KT 2SM -SN BR OVC030
      TEMPO 0200/0204 3SM -SN BR SCT030 OVC040
     FM020600 VRB03KT 2SM -SN BR OVC020
     FM021300 31008G17KT 3SM -SHSN OVC020
     FM021600 30012G25KT 2SM -SHSN OVC035=



000
FTUS41 KBTV 012136 AAA
TAFMPV
TAF AMD
KMPV 012136Z 0122/0218 19009KT 6SM -SHSN BR OVC035
      TEMPO 0122/0201 2SM -SN BR OVC020
     FM020100 18004KT 2SM -SN BR OVC020
     FM021200 30006KT 6SM -SHSN OVC020
     FM021600 31011G22KT P6SM OVC025=



000
FTUS41 KBTV 012136 AAA
TAFMPV
TAF AMD
KMPV 012136Z 0122/0218 19009KT 6SM -SHSN BR OVC035
      TEMPO 0122/0201 2SM -SN BR OVC020
     FM020100 18004KT 2SM -SN BR OVC020
     FM021200 30006KT 6SM -SHSN OVC020
     FM021600 31011G22KT P6SM OVC025=



000
FTUS41 KBTV 012053 AAA
TAFSLK
TAF AMD
KSLK 012053Z 0121/0218 21007KT P6SM VCSH OVC025
      TEMPO 0121/0201 2SM -SN OVC025
     FM020100 23005KT 2SM -SN OVC015
     FM020900 VRB03KT 5SM -SHSN BR OVC015
     FM021500 26009KT P6SM SHSN OVC025=



000
FTUS41 KBTV 011720
TAFMPV
TAF
KMPV 011720Z 0118/0218 17008KT P6SM OVC060
     FM012100 19009KT P6SM VCSH OVC020
     FM020100 18004KT 2SM -SN BR OVC020
     FM021200 30006KT 6SM -SHSN OVC020
     FM021600 31011G22KT P6SM OVC025=



000
FTUS41 KBTV 011720
TAFBTV
TAF
KBTV 011720Z 0118/0218 19011G19KT P6SM OVC060
     FM012200 17007KT P6SM VCSH OVC040
     FM020300 18005KT 3SM -SN BR OVC025
     FM021200 30007KT P6SM OVC020
     FM021500 29010G17KT P6SM BKN025=



000
FTUS41 KBTV 011720
TAFMSS
TAF
KMSS 011720Z 0118/0218 18006KT P6SM OVC045
     FM012000 20006KT P6SM VCSH OVC025
     FM020100 VRB03KT 2SM -SN BR OVC010
     FM020700 25006KT 5SM -SHSN BR OVC040
     FM021200 25007KT P6SM OVC045=



000
FTUS41 KBTV 011720
TAFMSS
TAF
KMSS 011720Z 0118/0218 18006KT P6SM OVC045
     FM012000 20006KT P6SM VCSH OVC025
     FM020100 VRB03KT 2SM -SN BR OVC010
     FM020700 25006KT 5SM -SHSN BR OVC040
     FM021200 25007KT P6SM OVC045=



000
FTUS41 KBTV 011720
TAFBTV
TAF
KBTV 011720Z 0118/0218 19011G19KT P6SM OVC060
     FM012200 17007KT P6SM VCSH OVC040
     FM020300 18005KT 3SM -SN BR OVC025
     FM021200 30007KT P6SM OVC020
     FM021500 29010G17KT P6SM BKN025=



000
FTUS41 KBTV 011720
TAFMPV
TAF
KMPV 011720Z 0118/0218 17008KT P6SM OVC060
     FM012100 19009KT P6SM VCSH OVC020
     FM020100 18004KT 2SM -SN BR OVC020
     FM021200 30006KT 6SM -SHSN OVC020
     FM021600 31011G22KT P6SM OVC025=



000
FTUS41 KBTV 011720
TAFSLK
TAF
KSLK 011720Z 0118/0218 21007KT P6SM VCSH OVC045
     FM012000 21007KT P6SM VCSH OVC025
     FM020100 23005KT 2SM -SN OVC015
     FM020900 VRB03KT 5SM -SHSN BR OVC015
     FM021500 26009KT P6SM SHSN OVC025=



000
FTUS41 KBTV 011127
TAFBTV
TAF
KBTV 011127Z 0112/0212 16005KT P6SM OVC150
     FM011500 17010G17KT P6SM OVC070
     FM011900 17010G20KT 3SM -SN BR BKN025 OVC060
     FM020000 18008KT 2SM -SN BR OVC020
     FM020900 29006KT 2SM -SN BR OVC020=



000
FTUS41 KBTV 011127
TAFSLK
TAF
KSLK 011127Z 0112/0212 VRB02KT P6SM OVC100
     FM011400 20005KT P6SM OVC060
     FM011700 21008KT 1 1/2SM -SN BR OVC015
     FM020600 25006KT 1 1/2SM -SN BR OVC015=



000
FTUS41 KBTV 011127
TAFMSS
TAF
KMSS 011127Z 0112/0212 00000KT P6SM OVC120
     FM011400 13005KT P6SM OVC090
     FM011700 20007KT 2SM -SN BR OVC015
     FM020600 25009KT 2SM -SN BR OVC020=



000
FTUS41 KBTV 011127
TAFMPV
TAF
KMPV 011127Z 0112/0212 VRB02KT P6SM OVC150
     FM011500 18007KT P6SM OVC060
     FM011900 18010KT 2SM -SN BR BKN025 OVC040
     FM012300 18006KT 1SM -SN BR SCT008 OVC015
     FM020900 29005KT 2SM -SN BR OVC015=



    US Dept of Commerce
    National Oceanic and Atmospheric Administration
    National Weather Service
    1325 East West Highway
    Silver Spring, MD 20910
    Page Author: NWS Internet Services Team
Disclaimer
Information Quality
Credits
Glossary
Privacy Policy
Freedom of Information Act (FOIA)
About Us
Career Opportunities